createdAt,value
2022-08-21T00:00:29.423Z,19.64
2022-08-21T00:01:29.371Z,19.55
2022-08-21T00:02:29.427Z,19.64
2022-08-21T00:03:29.314Z,19.56
2022-08-21T00:04:30.227Z,19.58
2022-08-21T00:05:29.256Z,19.63
2022-08-21T00:06:29.228Z,19.55
2022-08-21T00:07:29.786Z,19.55
2022-08-21T00:08:29.179Z,19.47
2022-08-21T00:09:38.642Z,19.45
2022-08-21T00:10:29.133Z,19.44
2022-08-21T00:11:29.092Z,19.41
2022-08-21T00:12:29.064Z,19.39
2022-08-21T00:13:29.164Z,19.40
2022-08-21T00:14:31.229Z,19.31
2022-08-21T00:15:28.980Z,19.24
2022-08-21T00:16:28.953Z,19.26
2022-08-21T00:17:28.921Z,19.33
2022-08-21T00:18:28.896Z,19.22
2022-08-21T00:19:28.983Z,19.27
2022-08-21T00:20:28.841Z,19.24
2022-08-21T00:21:28.822Z,19.16
2022-08-21T00:22:28.801Z,19.12
2022-08-21T00:23:28.757Z,19.15
2022-08-21T00:24:28.727Z,19.12
2022-08-21T00:25:28.755Z,19.09
2022-08-21T00:26:28.673Z,18.96
2022-08-21T00:27:28.644Z,18.99
2022-08-21T00:28:28.629Z,18.96
2022-08-21T00:29:28.586Z,18.96
2022-08-21T00:30:28.667Z,18.88
2022-08-21T00:31:28.547Z,18.84
2022-08-21T00:32:28.511Z,18.84
2022-08-21T00:33:28.479Z,18.84
2022-08-21T00:34:28.445Z,18.84
2022-08-21T00:35:28.419Z,18.84
2022-08-21T00:36:28.455Z,18.84
2022-08-21T00:37:28.364Z,18.81
2022-08-21T00:38:28.329Z,18.78
2022-08-21T00:39:28.307Z,18.77
2022-08-21T00:40:28.276Z,18.77
2022-08-21T00:41:38.175Z,18.77
2022-08-21T00:42:28.292Z,18.77
2022-08-21T00:43:28.186Z,18.78
2022-08-21T00:44:28.166Z,18.75
2022-08-21T00:45:28.143Z,18.73
2022-08-21T00:46:28.408Z,18.77
2022-08-21T00:47:28.080Z,18.80
2022-08-21T00:48:28.242Z,18.78
2022-08-21T00:49:28.019Z,18.80
2022-08-21T00:50:27.994Z,18.68
2022-08-21T00:51:27.964Z,18.70
2022-08-21T00:52:27.938Z,18.65
2022-08-21T00:53:27.984Z,18.65
2022-08-21T00:54:28.055Z,18.66
2022-08-21T00:55:27.857Z,18.68
2022-08-21T00:56:27.823Z,18.65
2022-08-21T00:57:27.856Z,18.66
2022-08-21T00:58:28.634Z,18.70
2022-08-21T00:59:27.789Z,18.66
2022-08-21T01:00:27.706Z,18.66
2022-08-21T01:01:27.720Z,18.70
2022-08-21T01:02:27.655Z,18.77
2022-08-21T01:03:27.621Z,18.65
2022-08-21T01:04:27.695Z,18.70
2022-08-21T01:05:27.574Z,18.70
2022-08-21T01:06:27.536Z,18.65
2022-08-21T01:07:27.695Z,18.71
2022-08-21T01:08:27.479Z,18.73
2022-08-21T01:09:27.452Z,18.65
2022-08-21T01:10:27.827Z,18.60
2022-08-21T01:11:27.393Z,18.56
2022-08-21T01:12:27.364Z,18.60
2022-08-21T01:13:27.338Z,18.59
2022-08-21T01:14:27.308Z,18.59
2022-08-21T01:15:27.278Z,18.56
2022-08-21T01:16:27.319Z,18.58
2022-08-21T01:17:27.227Z,18.58
2022-08-21T01:18:27.195Z,18.47
2022-08-21T01:19:27.165Z,18.56
2022-08-21T01:20:32.534Z,18.49
2022-08-21T01:21:28.433Z,18.50
2022-08-21T01:22:27.138Z,18.52
2022-08-21T01:23:27.054Z,18.45
2022-08-21T01:24:27.024Z,18.50
2022-08-21T01:25:26.991Z,18.49
2022-08-21T01:26:32.678Z,18.49
2022-08-21T01:27:27.045Z,18.45
2022-08-21T01:28:26.910Z,18.47
2022-08-21T01:29:26.948Z,18.47
2022-08-21T01:30:26.850Z,18.47
2022-08-21T01:31:26.822Z,18.45
2022-08-21T01:32:26.858Z,18.43
2022-08-21T01:33:26.919Z,18.41
2022-08-21T01:34:26.734Z,18.38
2022-08-21T01:35:26.703Z,18.38
2022-08-21T01:36:26.676Z,18.40
2022-08-21T01:37:27.716Z,18.44
2022-08-21T01:38:26.622Z,18.41
2022-08-21T01:39:26.722Z,18.40
2022-08-21T01:40:26.565Z,18.38
2022-08-21T01:41:26.555Z,18.35
2022-08-21T01:42:26.511Z,18.22
2022-08-21T01:43:33.978Z,18.33
2022-08-21T01:44:26.504Z,18.34
2022-08-21T01:45:26.580Z,18.26
2022-08-21T01:46:26.390Z,18.28
2022-08-21T01:47:26.366Z,18.28
2022-08-21T01:48:26.336Z,18.33
2022-08-21T01:49:26.304Z,18.19
2022-08-21T01:50:26.395Z,18.18
2022-08-21T01:51:26.247Z,18.19
2022-08-21T01:52:26.223Z,18.16
2022-08-21T01:53:33.046Z,18.16
2022-08-21T01:54:26.163Z,18.19
2022-08-21T01:55:26.133Z,18.20
2022-08-21T01:56:26.192Z,18.15
2022-08-21T01:57:26.496Z,18.16
2022-08-21T01:58:26.045Z,18.13
2022-08-21T01:59:26.022Z,18.07
2022-08-21T02:00:25.993Z,18.04
2022-08-21T02:01:26.017Z,18.04
2022-08-21T02:02:26.016Z,18.08
2022-08-21T02:03:35.093Z,18.03
2022-08-21T02:04:25.873Z,18.03
2022-08-21T02:05:25.846Z,18.03
2022-08-21T02:06:25.818Z,18.00
2022-08-21T02:07:25.788Z,18.00
2022-08-21T02:08:25.817Z,17.86
2022-08-21T02:09:25.730Z,17.95
2022-08-21T02:10:25.704Z,18.04
2022-08-21T02:11:25.685Z,17.98
2022-08-21T02:12:25.652Z,17.87
2022-08-21T02:13:25.671Z,17.97
2022-08-21T02:14:32.304Z,17.95
2022-08-21T02:15:25.560Z,17.92
2022-08-21T02:16:25.531Z,17.89
2022-08-21T02:17:25.498Z,17.85
2022-08-21T02:18:29.621Z,17.86
2022-08-21T02:19:25.447Z,17.82
2022-08-21T02:20:25.415Z,17.80
2022-08-21T02:21:25.390Z,17.82
2022-08-21T02:22:25.362Z,17.72
2022-08-21T02:23:27.012Z,17.76
2022-08-21T02:24:25.360Z,17.83
2022-08-21T02:25:25.371Z,17.80
2022-08-21T02:26:25.239Z,17.70
2022-08-21T02:27:26.746Z,17.72
2022-08-21T02:28:25.315Z,17.65
2022-08-21T02:29:25.160Z,17.68
2022-08-21T02:30:25.128Z,17.67
2022-08-21T02:31:25.157Z,17.64
2022-08-21T02:32:25.072Z,17.71
2022-08-21T02:33:25.042Z,17.59
2022-08-21T02:34:25.007Z,17.67
2022-08-21T02:35:24.989Z,17.67
2022-08-21T02:36:25.527Z,17.67
2022-08-21T02:37:24.923Z,17.60
2022-08-21T02:38:24.899Z,17.63
2022-08-21T02:39:27.112Z,17.57
2022-08-21T02:40:24.838Z,17.51
2022-08-21T02:41:24.807Z,17.57
2022-08-21T02:42:24.900Z,17.54
2022-08-21T02:43:24.760Z,17.42
2022-08-21T02:44:34.532Z,17.46
2022-08-21T02:45:24.691Z,17.51
2022-08-21T02:46:24.696Z,17.45
2022-08-21T02:47:24.643Z,17.42
2022-08-21T02:48:24.893Z,17.36
2022-08-21T02:49:24.581Z,17.34
2022-08-21T02:50:24.551Z,17.24
2022-08-21T02:51:24.519Z,17.31
2022-08-21T02:52:24.494Z,17.31
2022-08-21T02:53:24.467Z,17.34
2022-08-21T02:54:24.645Z,17.34
2022-08-21T02:55:24.406Z,17.33
2022-08-21T02:56:24.387Z,17.33
2022-08-21T02:57:24.359Z,17.36
2022-08-21T02:58:24.323Z,17.33
2022-08-21T02:59:24.288Z,17.36
2022-08-21T03:00:24.529Z,17.30
2022-08-21T03:01:24.274Z,17.33
2022-08-21T03:02:24.211Z,17.29
2022-08-21T03:03:24.190Z,17.33
2022-08-21T03:04:24.207Z,17.33
2022-08-21T03:05:24.118Z,17.38
2022-08-21T03:06:24.140Z,17.33
2022-08-21T03:07:24.070Z,17.34
2022-08-21T03:08:24.260Z,17.34
2022-08-21T03:09:24.005Z,17.34
2022-08-21T03:10:23.974Z,17.27
2022-08-21T03:11:24.215Z,17.20
2022-08-21T03:12:23.919Z,17.27
2022-08-21T03:13:23.883Z,17.22
2022-08-21T03:14:23.893Z,17.20
2022-08-21T03:15:23.828Z,17.11
2022-08-21T03:16:23.874Z,17.16
2022-08-21T03:17:29.945Z,17.11
2022-08-21T03:18:24.666Z,17.09
2022-08-21T03:19:23.714Z,16.96
2022-08-21T03:20:23.702Z,17.05
2022-08-21T03:21:23.675Z,16.89
2022-08-21T03:22:23.838Z,16.97
2022-08-21T03:23:23.607Z,16.91
2022-08-21T03:24:23.613Z,16.89
2022-08-21T03:25:39.908Z,16.81
2022-08-21T03:26:23.528Z,16.79
2022-08-21T03:27:23.499Z,16.71
2022-08-21T03:28:25.695Z,16.81
2022-08-21T03:29:23.428Z,16.75
2022-08-21T03:30:24.067Z,16.75
2022-08-21T03:31:23.367Z,16.72
2022-08-21T03:32:23.340Z,16.71
2022-08-21T03:33:23.699Z,16.68
2022-08-21T03:34:24.761Z,16.66
2022-08-21T03:35:23.250Z,16.54
2022-08-21T03:36:23.223Z,16.65
2022-08-21T03:37:23.195Z,16.54
2022-08-21T03:38:26.463Z,16.56
2022-08-21T03:39:23.136Z,16.57
2022-08-21T03:40:24.452Z,16.60
2022-08-21T03:41:23.091Z,16.57
2022-08-21T03:42:23.055Z,16.61
2022-08-21T03:43:23.029Z,16.53
2022-08-21T03:44:22.990Z,16.61
2022-08-21T03:45:22.962Z,16.68
2022-08-21T03:46:23.055Z,16.60
2022-08-21T03:47:22.930Z,16.64
2022-08-21T03:48:22.883Z,16.66
2022-08-21T03:49:22.845Z,16.54
2022-08-21T03:50:22.831Z,16.58
2022-08-21T03:51:22.785Z,16.57
2022-08-21T03:52:22.808Z,16.56
2022-08-21T03:53:22.749Z,16.54
2022-08-21T03:54:22.701Z,16.51
2022-08-21T03:55:22.681Z,16.49
2022-08-21T03:56:22.642Z,16.49
2022-08-21T03:57:22.681Z,16.42
2022-08-21T03:58:22.584Z,16.46
2022-08-21T03:59:22.554Z,16.38
2022-08-21T04:00:22.531Z,16.33
2022-08-21T04:01:22.537Z,16.29
2022-08-21T04:02:22.522Z,16.28
2022-08-21T04:03:22.439Z,16.17
2022-08-21T04:04:22.408Z,16.28
2022-08-21T04:05:22.373Z,16.16
2022-08-21T04:06:23.172Z,16.12
2022-08-21T04:07:22.381Z,16.12
2022-08-21T04:08:22.302Z,16.05
2022-08-21T04:09:22.273Z,16.05
2022-08-21T04:10:22.231Z,16.05
2022-08-21T04:11:22.207Z,16.02
2022-08-21T04:12:22.234Z,16.05
2022-08-21T04:13:22.143Z,16.05
2022-08-21T04:14:22.125Z,16.00
2022-08-21T04:15:22.107Z,16.02
2022-08-21T04:16:22.086Z,15.94
2022-08-21T04:17:22.084Z,15.94
2022-08-21T04:18:22.354Z,15.91
2022-08-21T04:19:21.980Z,16.01
2022-08-21T04:20:21.940Z,16.00
2022-08-21T04:21:24.231Z,15.97
2022-08-21T04:22:22.253Z,15.98
2022-08-21T04:23:23.593Z,15.97
2022-08-21T04:24:21.821Z,15.95
2022-08-21T04:25:21.792Z,15.90
2022-08-21T04:26:21.764Z,15.92
2022-08-21T04:27:21.731Z,15.92
2022-08-21T04:28:23.173Z,15.92
2022-08-21T04:29:21.669Z,15.90
2022-08-21T04:30:21.645Z,15.92
2022-08-21T04:31:21.689Z,15.83
2022-08-21T04:32:21.593Z,15.92
2022-08-21T04:33:21.558Z,15.84
2022-08-21T04:34:21.629Z,15.90
2022-08-21T04:35:21.498Z,15.92
2022-08-21T04:36:24.409Z,15.79
2022-08-21T04:37:21.442Z,15.83
2022-08-21T04:38:21.415Z,15.90
2022-08-21T04:39:21.377Z,15.95
2022-08-21T04:40:21.504Z,16.00
2022-08-21T04:41:27.919Z,15.92
2022-08-21T04:42:21.295Z,15.98
2022-08-21T04:43:21.266Z,16.01
2022-08-21T04:44:21.234Z,16.04
2022-08-21T04:45:21.375Z,16.05
2022-08-21T04:46:21.173Z,16.17
2022-08-21T04:47:21.257Z,16.12
2022-08-21T04:48:21.113Z,16.29
2022-08-21T04:49:21.089Z,16.21
2022-08-21T04:50:21.084Z,16.26
2022-08-21T04:51:21.266Z,16.29
2022-08-21T04:52:21.002Z,16.39
2022-08-21T04:53:20.963Z,16.38
2022-08-21T04:54:20.935Z,16.46
2022-08-21T04:55:20.907Z,16.36
2022-08-21T04:56:20.882Z,16.50
2022-08-21T04:57:20.909Z,16.50
2022-08-21T04:58:20.845Z,16.54
2022-08-21T04:59:20.820Z,16.46
2022-08-21T05:00:21.688Z,16.57
2022-08-21T05:01:20.776Z,16.57
2022-08-21T05:02:21.300Z,16.60
2022-08-21T05:03:20.673Z,16.61
2022-08-21T05:04:20.645Z,16.68
2022-08-21T05:05:20.612Z,16.65
2022-08-21T05:06:20.587Z,16.78
2022-08-21T05:07:41.961Z,16.69
2022-08-21T05:08:20.584Z,16.68
2022-08-21T05:09:20.498Z,16.74
2022-08-21T05:10:20.477Z,16.72
2022-08-21T05:11:20.440Z,16.75
2022-08-21T05:12:20.410Z,16.75
2022-08-21T05:13:20.449Z,16.72
2022-08-21T05:14:20.353Z,16.86
2022-08-21T05:15:20.324Z,16.86
2022-08-21T05:16:31.728Z,16.89
2022-08-21T05:17:20.268Z,16.89
2022-08-21T05:18:20.777Z,16.91
2022-08-21T05:19:20.216Z,16.99
2022-08-21T05:20:20.185Z,17.04
2022-08-21T05:21:20.147Z,16.96
2022-08-21T05:22:20.127Z,17.14
2022-08-21T05:23:20.101Z,17.14
2022-08-21T05:24:22.380Z,17.09
2022-08-21T05:25:22.282Z,17.12
2022-08-21T05:26:20.727Z,17.26
2022-08-21T05:27:19.977Z,17.22
2022-08-21T05:28:19.948Z,17.26
2022-08-21T05:29:19.921Z,17.39
2022-08-21T05:30:21.676Z,17.44
2022-08-21T05:31:19.860Z,17.46
2022-08-21T05:32:19.831Z,17.57
2022-08-21T05:33:19.809Z,17.60
2022-08-21T05:34:19.775Z,17.68
2022-08-21T05:35:19.816Z,17.68
2022-08-21T05:36:19.775Z,17.68
2022-08-21T05:37:19.692Z,17.85
2022-08-21T05:38:19.681Z,17.79
2022-08-21T05:39:19.637Z,17.87
2022-08-21T05:40:20.940Z,17.90
2022-08-21T05:41:19.854Z,17.89
2022-08-21T05:42:19.554Z,17.92
2022-08-21T05:43:19.526Z,18.00
2022-08-21T05:44:19.498Z,18.08
2022-08-21T05:45:19.472Z,18.15
2022-08-21T05:46:19.433Z,18.16
2022-08-21T05:47:19.538Z,18.16
2022-08-21T05:48:19.385Z,18.25
2022-08-21T05:49:19.415Z,18.34
2022-08-21T05:50:19.333Z,18.22
2022-08-21T05:51:19.298Z,18.33
2022-08-21T05:52:19.263Z,18.43
2022-08-21T05:53:19.306Z,18.38
2022-08-21T05:54:19.217Z,18.53
2022-08-21T05:55:19.206Z,18.56
2022-08-21T05:56:19.161Z,18.65
2022-08-21T05:57:19.130Z,18.66
2022-08-21T05:58:19.185Z,18.81
2022-08-21T05:59:19.084Z,18.95
2022-08-21T06:00:19.046Z,18.99
2022-08-21T06:01:19.094Z,19.04
2022-08-21T06:02:19.603Z,18.98
2022-08-21T06:03:19.074Z,19.15
2022-08-21T06:04:18.963Z,19.15
2022-08-21T06:05:36.329Z,19.16
2022-08-21T06:06:18.922Z,19.22
2022-08-21T06:07:18.854Z,19.26
2022-08-21T06:08:19.717Z,19.30
2022-08-21T06:09:19.266Z,19.34
2022-08-21T06:10:18.769Z,19.45
2022-08-21T06:11:20.759Z,19.41
2022-08-21T06:12:18.722Z,19.44
2022-08-21T06:13:18.682Z,19.40
2022-08-21T06:14:18.659Z,19.44
2022-08-21T06:15:18.688Z,19.47
2022-08-21T06:16:18.603Z,19.30
2022-08-21T06:17:18.595Z,19.24
2022-08-21T06:18:18.737Z,19.26
2022-08-21T06:19:18.539Z,19.34
2022-08-21T06:20:18.898Z,19.41
2022-08-21T06:21:18.474Z,19.52
2022-08-21T06:22:18.449Z,19.45
2022-08-21T06:23:18.416Z,19.34
2022-08-21T06:24:18.390Z,19.31
2022-08-21T06:25:19.234Z,19.31
2022-08-21T06:26:18.386Z,19.39
2022-08-21T06:27:22.385Z,19.36
2022-08-21T06:28:18.345Z,19.39
2022-08-21T06:29:18.251Z,19.39
2022-08-21T06:30:18.226Z,19.40
2022-08-21T06:31:19.224Z,19.45
2022-08-21T06:32:18.168Z,19.40
2022-08-21T06:33:18.300Z,19.41
2022-08-21T06:34:18.123Z,19.52
2022-08-21T06:35:18.088Z,19.67
2022-08-21T06:36:18.065Z,19.76
2022-08-21T06:37:18.175Z,19.85
2022-08-21T06:38:18.010Z,19.89
2022-08-21T06:39:25.539Z,19.99
2022-08-21T06:40:18.025Z,20.07
2022-08-21T06:41:17.933Z,20.18
2022-08-21T06:42:17.906Z,20.28
2022-08-21T06:43:18.048Z,20.29
2022-08-21T06:44:17.939Z,20.37
2022-08-21T06:45:17.824Z,20.47
2022-08-21T06:46:17.801Z,20.56
2022-08-21T06:47:17.769Z,20.65
2022-08-21T06:48:19.538Z,20.62
2022-08-21T06:49:21.448Z,20.70
2022-08-21T06:50:17.691Z,20.63
2022-08-21T06:51:17.676Z,20.67
2022-08-21T06:52:17.648Z,20.66
2022-08-21T06:53:17.615Z,20.74
2022-08-21T06:54:17.608Z,20.72
2022-08-21T06:55:21.742Z,20.87
2022-08-21T06:56:17.537Z,20.74
2022-08-21T06:57:17.539Z,20.63
2022-08-21T06:58:17.485Z,20.63
2022-08-21T06:59:17.455Z,20.52
2022-08-21T07:00:17.790Z,20.62
2022-08-21T07:01:17.433Z,20.69
2022-08-21T07:02:17.406Z,20.85
2022-08-21T07:03:17.370Z,20.80
2022-08-21T07:04:17.329Z,20.82
2022-08-21T07:05:18.528Z,20.84
2022-08-21T07:06:17.545Z,20.92
2022-08-21T07:07:17.251Z,21.05
2022-08-21T07:08:18.152Z,20.82
2022-08-21T07:09:20.468Z,20.81
2022-08-21T07:10:22.196Z,20.80
2022-08-21T07:11:17.153Z,20.84
2022-08-21T07:12:17.297Z,21.00
2022-08-21T07:13:17.092Z,21.00
2022-08-21T07:14:20.291Z,21.21
2022-08-21T07:15:17.051Z,21.24
2022-08-21T07:16:17.016Z,21.29
2022-08-21T07:17:17.046Z,21.40
2022-08-21T07:18:16.969Z,21.46
2022-08-21T07:19:16.964Z,21.42
2022-08-21T07:20:16.916Z,21.57
2022-08-21T07:21:16.901Z,21.61
2022-08-21T07:22:16.915Z,21.67
2022-08-21T07:23:16.840Z,21.72
2022-08-21T07:24:16.814Z,21.76
2022-08-21T07:25:17.739Z,21.75
2022-08-21T07:26:16.767Z,21.73
2022-08-21T07:27:16.817Z,21.83
2022-08-21T07:28:16.714Z,21.88
2022-08-21T07:29:16.689Z,21.95
2022-08-21T07:30:16.666Z,21.95
2022-08-21T07:31:16.641Z,21.93
2022-08-21T07:32:20.899Z,21.83
2022-08-21T07:33:16.706Z,21.93
2022-08-21T07:34:16.586Z,22.07
2022-08-21T07:35:16.539Z,21.93
2022-08-21T07:36:16.509Z,22.00
2022-08-21T07:37:16.484Z,22.15
2022-08-21T07:38:16.460Z,22.11
2022-08-21T07:39:16.491Z,21.92
2022-08-21T07:40:16.492Z,21.77
2022-08-21T07:41:16.394Z,21.73
2022-08-21T07:42:16.412Z,21.73
2022-08-21T07:43:16.385Z,21.75
2022-08-21T07:44:18.172Z,21.88
2022-08-21T07:45:16.286Z,22.00
2022-08-21T07:46:16.263Z,21.96
2022-08-21T07:47:16.249Z,21.92
2022-08-21T07:48:16.214Z,21.77
2022-08-21T07:49:16.243Z,21.89
2022-08-21T07:50:16.161Z,21.91
2022-08-21T07:51:16.153Z,21.99
2022-08-21T07:52:16.106Z,21.95
2022-08-21T07:53:16.089Z,21.75
2022-08-21T07:54:17.290Z,21.75
2022-08-21T07:55:16.105Z,21.64
2022-08-21T07:56:16.013Z,21.62
2022-08-21T07:57:15.983Z,21.60
2022-08-21T07:58:15.959Z,21.58
2022-08-21T07:59:15.936Z,21.54
2022-08-21T08:00:15.979Z,21.46
2022-08-21T08:01:15.926Z,21.43
2022-08-21T08:02:16.677Z,21.58
2022-08-21T08:03:15.835Z,21.45
2022-08-21T08:04:15.809Z,21.36
2022-08-21T08:05:15.784Z,21.33
2022-08-21T08:06:16.346Z,21.36
2022-08-21T08:07:15.741Z,21.36
2022-08-21T08:08:15.733Z,21.48
2022-08-21T08:09:15.690Z,21.61
2022-08-21T08:10:15.668Z,21.67
2022-08-21T08:11:15.636Z,21.66
2022-08-21T08:12:15.816Z,21.61
2022-08-21T08:13:15.581Z,21.51
2022-08-21T08:14:15.554Z,21.48
2022-08-21T08:15:15.606Z,21.37
2022-08-21T08:16:15.507Z,21.42
2022-08-21T08:17:15.479Z,21.39
2022-08-21T08:18:15.536Z,21.37
2022-08-21T08:19:15.430Z,21.37
2022-08-21T08:20:15.397Z,21.32
2022-08-21T08:21:15.377Z,21.61
2022-08-21T08:22:15.343Z,21.55
2022-08-21T08:23:15.324Z,21.64
2022-08-21T08:24:18.531Z,21.64
2022-08-21T08:25:16.254Z,21.61
2022-08-21T08:26:15.245Z,21.66
2022-08-21T08:27:15.223Z,21.61
2022-08-21T08:28:16.585Z,21.72
2022-08-21T08:29:15.167Z,21.73
2022-08-21T08:30:15.396Z,21.73
2022-08-21T08:31:15.125Z,21.91
2022-08-21T08:32:15.084Z,21.88
2022-08-21T08:33:15.063Z,21.99
2022-08-21T08:34:23.608Z,22.33
2022-08-21T08:35:15.066Z,22.39
2022-08-21T08:36:15.049Z,22.51
2022-08-21T08:37:14.961Z,22.68
2022-08-21T08:38:14.936Z,22.75
2022-08-21T08:39:26.559Z,22.72
2022-08-21T08:40:14.908Z,22.75
2022-08-21T08:41:14.857Z,22.80
2022-08-21T08:42:33.350Z,22.84
2022-08-21T08:43:15.006Z,22.83
2022-08-21T08:44:15.763Z,22.72
2022-08-21T08:45:14.764Z,22.78
2022-08-21T08:46:14.733Z,23.02
2022-08-21T08:47:14.837Z,22.85
2022-08-21T08:48:14.720Z,22.81
2022-08-21T08:49:14.653Z,22.83
2022-08-21T08:50:14.630Z,22.93
2022-08-21T08:51:14.610Z,22.99
2022-08-21T08:52:14.586Z,22.88
2022-08-21T08:53:14.633Z,22.96
2022-08-21T08:54:14.540Z,22.84
2022-08-21T08:55:14.515Z,22.80
2022-08-21T08:56:14.491Z,22.80
2022-08-21T08:57:14.507Z,22.83
2022-08-21T08:58:14.443Z,22.73
2022-08-21T08:59:14.482Z,22.70
2022-08-21T09:00:14.385Z,22.72
2022-08-21T09:01:14.414Z,22.59
2022-08-21T09:02:14.340Z,22.39
2022-08-21T09:03:14.313Z,22.51
2022-08-21T09:04:14.294Z,22.59
2022-08-21T09:05:14.318Z,22.73
2022-08-21T09:06:14.251Z,22.68
2022-08-21T09:07:14.222Z,22.80
2022-08-21T09:08:18.522Z,22.81
2022-08-21T09:09:14.177Z,22.69
2022-08-21T09:10:14.137Z,22.60
2022-08-21T09:11:14.204Z,22.66
2022-08-21T09:12:14.099Z,22.76
2022-08-21T09:13:14.084Z,22.94
2022-08-21T09:14:14.046Z,23.06
2022-08-21T09:15:14.019Z,23.15
2022-08-21T09:16:13.997Z,23.03
2022-08-21T09:17:14.056Z,23.03
2022-08-21T09:18:14.100Z,23.12
2022-08-21T09:19:13.924Z,23.15
2022-08-21T09:20:13.889Z,23.23
2022-08-21T09:21:20.672Z,23.27
2022-08-21T09:22:13.854Z,23.31
2022-08-21T09:23:14.943Z,23.48
2022-08-21T09:24:13.824Z,23.48
2022-08-21T09:25:13.782Z,23.31
2022-08-21T09:26:13.750Z,23.39
2022-08-21T09:27:13.726Z,23.47
2022-08-21T09:28:13.708Z,23.32
2022-08-21T09:29:13.907Z,23.31
2022-08-21T09:30:13.655Z,23.50
2022-08-21T09:31:13.646Z,23.62
2022-08-21T09:32:18.418Z,23.65
2022-08-21T09:33:13.580Z,23.74
2022-08-21T09:34:13.556Z,23.62
2022-08-21T09:35:13.830Z,23.65
2022-08-21T09:36:13.511Z,23.65
2022-08-21T09:37:13.486Z,23.51
2022-08-21T09:38:13.481Z,23.39
2022-08-21T09:39:13.437Z,23.39
2022-08-21T09:40:13.485Z,23.32
2022-08-21T09:41:13.477Z,23.51
2022-08-21T09:42:13.366Z,23.58
2022-08-21T09:43:13.347Z,23.69
2022-08-21T09:44:13.317Z,23.63
2022-08-21T09:45:13.299Z,23.46
2022-08-21T09:46:13.271Z,23.62
2022-08-21T09:47:13.551Z,23.56
2022-08-21T09:48:13.248Z,23.48
2022-08-21T09:49:13.515Z,23.40
2022-08-21T09:50:13.179Z,23.50
2022-08-21T09:51:13.156Z,23.40
2022-08-21T09:52:13.138Z,23.48
2022-08-21T09:53:13.162Z,23.51
2022-08-21T09:54:13.088Z,23.62
2022-08-21T09:55:13.074Z,23.66
2022-08-21T09:56:13.034Z,23.84
2022-08-21T09:57:13.155Z,23.96
2022-08-21T09:58:13.022Z,23.88
2022-08-21T09:59:12.963Z,23.91
2022-08-21T10:00:13.104Z,23.98
2022-08-21T10:01:12.966Z,24.16
2022-08-21T10:02:12.896Z,24.36
2022-08-21T10:03:13.080Z,24.40
2022-08-21T10:04:13.713Z,24.55
2022-08-21T10:05:12.816Z,24.47
2022-08-21T10:06:12.843Z,24.60
2022-08-21T10:07:12.795Z,24.81
2022-08-21T10:08:12.749Z,24.86
2022-08-21T10:09:18.801Z,24.88
2022-08-21T10:10:12.700Z,24.91
2022-08-21T10:11:12.685Z,25.03
2022-08-21T10:12:12.655Z,25.13
2022-08-21T10:13:12.638Z,25.06
2022-08-21T10:14:12.679Z,24.84
2022-08-21T10:15:12.586Z,24.81
2022-08-21T10:16:12.591Z,24.63
2022-08-21T10:17:12.538Z,24.48
2022-08-21T10:18:12.520Z,24.51
2022-08-21T10:19:12.554Z,24.48
2022-08-21T10:20:12.528Z,24.06
2022-08-21T10:21:12.465Z,24.11
2022-08-21T10:22:12.457Z,24.28
2022-08-21T10:23:12.400Z,24.17
2022-08-21T10:24:23.994Z,24.16
2022-08-21T10:25:12.413Z,24.24
2022-08-21T10:26:13.572Z,24.03
2022-08-21T10:27:13.194Z,24.06
2022-08-21T10:28:13.834Z,23.74
2022-08-21T10:29:12.262Z,23.68
2022-08-21T10:30:12.675Z,23.73
2022-08-21T10:31:12.222Z,23.73
2022-08-21T10:32:26.236Z,23.71
2022-08-21T10:33:12.169Z,23.68
2022-08-21T10:34:12.199Z,23.66
2022-08-21T10:35:12.130Z,23.80
2022-08-21T10:36:12.172Z,23.95
2022-08-21T10:37:12.073Z,24.13
2022-08-21T10:38:28.104Z,24.10
2022-08-21T10:39:26.745Z,23.96
2022-08-21T10:40:12.086Z,23.99
2022-08-21T10:41:11.978Z,24.05
2022-08-21T10:42:12.169Z,24.32
2022-08-21T10:43:11.933Z,24.53
2022-08-21T10:44:11.911Z,24.47
2022-08-21T10:45:11.994Z,24.24
2022-08-21T10:46:11.877Z,24.16
2022-08-21T10:47:11.843Z,24.05
2022-08-21T10:48:11.934Z,23.98
2022-08-21T10:49:11.796Z,24.08
2022-08-21T10:50:11.773Z,24.17
2022-08-21T10:51:11.741Z,24.20
2022-08-21T10:52:11.845Z,24.33
2022-08-21T10:53:11.688Z,24.45
2022-08-21T10:54:11.728Z,24.48
2022-08-21T10:55:11.651Z,24.42
2022-08-21T10:56:11.627Z,24.54
2022-08-21T10:57:11.605Z,24.60
2022-08-21T10:58:11.575Z,24.38
2022-08-21T10:59:11.608Z,24.42
2022-08-21T11:00:11.685Z,24.55
2022-08-21T11:01:11.597Z,24.42
2022-08-21T11:02:11.491Z,24.40
2022-08-21T11:03:11.460Z,24.32
2022-08-21T11:04:11.637Z,24.50
2022-08-21T11:05:11.413Z,24.60
2022-08-21T11:06:11.390Z,24.76
2022-08-21T11:07:17.301Z,24.78
2022-08-21T11:08:11.343Z,24.42
2022-08-21T11:09:11.316Z,24.33
2022-08-21T11:10:11.424Z,24.24
2022-08-21T11:11:11.283Z,24.29
2022-08-21T11:12:12.365Z,24.21
2022-08-21T11:13:11.216Z,24.29
2022-08-21T11:14:11.288Z,24.23
2022-08-21T11:15:28.778Z,24.24
2022-08-21T11:16:11.155Z,24.18
2022-08-21T11:17:11.342Z,24.26
2022-08-21T11:18:11.106Z,24.50
2022-08-21T11:19:11.091Z,24.58
2022-08-21T11:20:11.201Z,24.63
2022-08-21T11:21:11.025Z,24.58
2022-08-21T11:22:11.028Z,24.57
2022-08-21T11:23:11.464Z,24.60
2022-08-21T11:24:10.956Z,24.47
2022-08-21T11:25:11.032Z,24.30
2022-08-21T11:26:10.981Z,24.26
2022-08-21T11:27:10.950Z,24.30
2022-08-21T11:28:14.346Z,24.50
2022-08-21T11:29:10.899Z,24.35
2022-08-21T11:30:10.969Z,24.33
2022-08-21T11:31:10.820Z,24.53
2022-08-21T11:32:10.767Z,24.60
2022-08-21T11:33:10.741Z,24.69
2022-08-21T11:34:10.909Z,24.80
2022-08-21T11:35:10.947Z,25.03
2022-08-21T11:36:11.324Z,25.07
2022-08-21T11:37:10.733Z,25.18
2022-08-21T11:38:10.619Z,25.23
2022-08-21T11:39:10.673Z,25.31
2022-08-21T11:40:10.727Z,25.32
2022-08-21T11:41:10.715Z,25.28
2022-08-21T11:42:10.523Z,25.18
2022-08-21T11:43:10.503Z,25.28
2022-08-21T11:44:15.226Z,25.16
2022-08-21T11:45:11.227Z,25.13
2022-08-21T11:46:10.456Z,24.99
2022-08-21T11:47:10.607Z,24.77
2022-08-21T11:48:10.388Z,24.54
2022-08-21T11:49:10.356Z,24.48
2022-08-21T11:50:25.646Z,24.63
2022-08-21T11:51:10.312Z,24.77
2022-08-21T11:52:10.302Z,24.96
2022-08-21T11:53:10.400Z,24.89
2022-08-21T11:54:10.238Z,24.98
2022-08-21T11:55:10.315Z,24.95
2022-08-21T11:56:10.391Z,25.03
2022-08-21T11:57:10.229Z,25.03
2022-08-21T11:58:10.193Z,25.06
2022-08-21T11:59:10.124Z,24.91
2022-08-21T12:00:10.103Z,25.03
2022-08-21T12:01:10.294Z,24.88
2022-08-21T12:02:11.154Z,24.77
2022-08-21T12:03:10.102Z,24.58
2022-08-21T12:04:14.733Z,24.66
2022-08-21T12:05:09.974Z,24.51
2022-08-21T12:06:09.949Z,24.21
2022-08-21T12:07:10.901Z,24.24
2022-08-21T12:08:09.984Z,24.18
2022-08-21T12:09:09.896Z,24.21
2022-08-21T12:10:09.895Z,24.33
2022-08-21T12:11:09.831Z,24.40
2022-08-21T12:12:09.814Z,24.40
2022-08-21T12:13:09.891Z,24.16
2022-08-21T12:14:10.001Z,24.14
2022-08-21T12:15:09.877Z,24.26
2022-08-21T12:16:09.863Z,24.21
2022-08-21T12:17:12.191Z,24.28
2022-08-21T12:18:09.686Z,24.24
2022-08-21T12:19:09.641Z,24.47
2022-08-21T12:20:09.709Z,24.47
2022-08-21T12:21:10.348Z,24.57
2022-08-21T12:22:12.743Z,24.38
2022-08-21T12:23:12.828Z,24.43
2022-08-21T12:24:09.519Z,24.39
2022-08-21T12:25:09.544Z,24.54
2022-08-21T12:26:09.569Z,24.45
2022-08-21T12:27:09.445Z,24.45
2022-08-21T12:28:09.416Z,24.55
2022-08-21T12:29:09.394Z,24.57
2022-08-21T12:30:09.413Z,24.54
2022-08-21T12:31:10.486Z,24.57
2022-08-21T12:32:09.459Z,24.43
2022-08-21T12:33:09.311Z,24.54
2022-08-21T12:34:09.266Z,24.50
2022-08-21T12:35:15.143Z,24.47
2022-08-21T12:36:09.215Z,24.42
2022-08-21T12:37:09.208Z,24.50
2022-08-21T12:38:09.285Z,24.54
2022-08-21T12:39:09.144Z,24.77
2022-08-21T12:40:09.177Z,24.66
2022-08-21T12:41:09.110Z,24.84
2022-08-21T12:42:09.125Z,24.92
2022-08-21T12:43:09.047Z,24.89
2022-08-21T12:44:09.184Z,25.01
2022-08-21T12:45:08.996Z,25.03
2022-08-21T12:46:10.749Z,24.95
2022-08-21T12:47:08.982Z,24.66
2022-08-21T12:48:09.830Z,24.51
2022-08-21T12:49:11.253Z,24.53
2022-08-21T12:50:08.978Z,24.50
2022-08-21T12:51:08.854Z,24.50
2022-08-21T12:52:08.829Z,24.48